createdAt,value
2023-02-04T00:00:26.553Z,5.43
2023-02-04T00:02:56.935Z,5.45
2023-02-04T00:05:27.313Z,5.43
2023-02-04T00:08:00.222Z,5.45
2023-02-04T00:10:30.899Z,5.41
2023-02-04T00:13:01.461Z,5.43
2023-02-04T00:15:31.853Z,5.48
2023-02-04T00:18:03.370Z,5.43
2023-02-04T00:20:33.648Z,5.42
2023-02-04T00:23:06.620Z,5.48
2023-02-04T00:25:36.952Z,5.41
2023-02-04T00:28:07.914Z,5.48
2023-02-04T00:30:38.334Z,5.46
2023-02-04T00:33:08.711Z,5.49
2023-02-04T00:35:40.178Z,5.51
2023-02-04T00:38:12.864Z,5.54
2023-02-04T00:40:44.147Z,5.42
2023-02-04T00:43:14.471Z,5.36
2023-02-04T00:45:45.568Z,5.29
2023-02-04T00:48:15.776Z,5.22
2023-02-04T00:50:46.120Z,5.16
2023-02-04T00:53:19.022Z,5.03
2023-02-04T00:55:49.332Z,4.97
2023-02-04T00:58:19.646Z,4.84
2023-02-04T01:00:49.971Z,4.81
2023-02-04T01:03:20.303Z,4.73
2023-02-04T01:05:50.624Z,4.70
2023-02-04T01:08:23.652Z,4.64
2023-02-04T01:10:54.017Z,4.65
2023-02-04T01:13:24.490Z,4.65
2023-02-04T01:15:54.839Z,4.63
2023-02-04T01:18:25.536Z,4.67
2023-02-04T01:20:55.886Z,4.58
2023-02-04T01:23:28.757Z,4.58
2023-02-04T01:25:59.058Z,4.59
2023-02-04T01:28:29.709Z,4.59
2023-02-04T01:31:02.084Z,4.59
2023-02-04T01:33:32.819Z,4.60
2023-02-04T01:36:03.216Z,4.63
2023-02-04T01:38:36.066Z,4.59
2023-02-04T01:41:07.737Z,4.64
2023-02-04T01:43:38.058Z,4.66
2023-02-04T01:46:09.400Z,4.64
2023-02-04T01:48:39.798Z,4.66
2023-02-04T01:51:14.882Z,4.66
2023-02-04T01:53:47.882Z,4.63
2023-02-04T01:56:21.847Z,4.60
2023-02-04T01:58:53.270Z,4.60
2023-02-04T02:01:41.962Z,4.56
2023-02-04T02:04:13.893Z,4.60
2023-02-04T02:06:51.313Z,4.54
2023-02-04T02:09:24.578Z,4.53
2023-02-04T02:11:55.033Z,4.53
2023-02-04T02:14:25.752Z,4.47
2023-02-04T02:16:56.505Z,4.36
2023-02-04T02:19:32.568Z,4.33
2023-02-04T02:22:14.263Z,4.28
2023-02-04T02:24:47.266Z,4.26
2023-02-04T02:27:17.711Z,4.26
2023-02-04T02:29:48.360Z,4.24
2023-02-04T02:32:18.949Z,4.24
2023-02-04T02:34:50.216Z,4.26
2023-02-04T02:37:20.263Z,4.18
2023-02-04T02:39:53.514Z,4.17
2023-02-04T02:42:24.138Z,4.17
2023-02-04T02:44:55.068Z,4.18
2023-02-04T02:47:28.476Z,4.12
2023-02-04T02:49:58.941Z,4.06
2023-02-04T02:52:29.389Z,4.05
2023-02-04T02:55:02.384Z,4.03
2023-02-04T02:57:32.895Z,4.01
2023-02-04T03:00:04.263Z,4.00
2023-02-04T03:02:34.309Z,4.01
2023-02-04T03:05:04.767Z,3.94
2023-02-04T03:07:36.213Z,3.91
2023-02-04T03:10:09.777Z,3.91
2023-02-04T03:12:42.352Z,3.93
2023-02-04T03:15:13.603Z,3.99
2023-02-04T03:17:44.394Z,4.00
2023-02-04T03:20:17.288Z,4.00
2023-02-04T03:22:47.680Z,4.03
2023-02-04T03:25:24.876Z,4.09
2023-02-04T03:27:55.859Z,4.12
2023-02-04T03:30:28.161Z,4.10
2023-02-04T03:32:58.524Z,4.10
2023-02-04T03:35:29.008Z,4.11
2023-02-04T03:37:59.440Z,4.03
2023-02-04T03:40:33.068Z,3.97
2023-02-04T03:43:03.643Z,3.99
2023-02-04T03:45:44.638Z,3.99
2023-02-04T03:48:15.523Z,3.97
2023-02-04T03:50:46.063Z,3.95
2023-02-04T03:53:16.483Z,3.93
2023-02-04T03:55:49.430Z,3.90
2023-02-04T03:58:20.056Z,3.93
2023-02-04T04:00:50.607Z,3.87
2023-02-04T04:03:20.991Z,3.89
2023-02-04T04:05:51.359Z,3.90
2023-02-04T04:08:21.674Z,3.94
2023-02-04T04:10:54.578Z,3.94
2023-02-04T04:13:24.854Z,3.94
2023-02-04T04:15:55.193Z,3.88
2023-02-04T04:18:25.531Z,3.82
2023-02-04T04:20:55.854Z,3.78
2023-02-04T04:23:26.232Z,3.69
2023-02-04T04:25:59.147Z,3.69
2023-02-04T04:28:29.460Z,3.73
2023-02-04T04:31:00.034Z,3.79
2023-02-04T04:33:30.421Z,3.86
2023-02-04T04:36:00.745Z,3.96
2023-02-04T04:38:31.059Z,3.92
2023-02-04T04:41:03.964Z,3.89
2023-02-04T04:43:34.225Z,3.89
2023-02-04T04:46:04.524Z,3.89
2023-02-04T04:48:34.876Z,3.91
2023-02-04T04:51:05.216Z,3.88
2023-02-04T04:53:35.495Z,3.87
2023-02-04T04:56:09.172Z,3.86
2023-02-04T04:58:39.476Z,3.88
2023-02-04T05:01:09.850Z,3.88
2023-02-04T05:03:40.181Z,3.85
2023-02-04T05:06:11.128Z,3.86
2023-02-04T05:08:41.518Z,3.78
2023-02-04T05:11:14.460Z,3.77
2023-02-04T05:13:44.753Z,3.83
2023-02-04T05:16:16.147Z,3.83
2023-02-04T05:18:46.575Z,3.77
2023-02-04T05:21:16.906Z,3.79
2023-02-04T05:23:47.238Z,3.76
2023-02-04T05:26:29.920Z,3.76
2023-02-04T05:29:02.936Z,3.75
2023-02-04T05:31:33.293Z,3.76
2023-02-04T05:34:03.702Z,3.78
2023-02-04T05:36:34.057Z,3.80
2023-02-04T05:39:04.514Z,3.77
2023-02-04T05:41:37.502Z,3.78
2023-02-04T05:44:08.336Z,3.78
2023-02-04T05:46:39.398Z,3.81
2023-02-04T05:49:10.616Z,3.75
2023-02-04T05:51:40.987Z,3.71
2023-02-04T05:54:11.503Z,3.66
2023-02-04T05:56:44.492Z,3.69
2023-02-04T05:59:14.797Z,3.69
2023-02-04T06:01:45.142Z,3.69
2023-02-04T06:04:18.511Z,3.66
2023-02-04T06:06:49.028Z,3.68
2023-02-04T06:09:19.349Z,3.69
2023-02-04T06:11:52.177Z,3.68
2023-02-04T06:14:22.445Z,3.66
2023-02-04T06:16:52.718Z,3.66
2023-02-04T06:19:23.130Z,3.62
2023-02-04T06:21:53.405Z,3.61
2023-02-04T06:24:23.771Z,3.57
2023-02-04T06:26:56.758Z,3.55
2023-02-04T06:29:27.245Z,3.61
2023-02-04T06:31:57.742Z,3.62
2023-02-04T06:34:28.500Z,3.53
2023-02-04T06:36:58.921Z,3.45
2023-02-04T06:39:29.423Z,3.45
2023-02-04T06:42:02.510Z,3.48
2023-02-04T06:44:32.928Z,3.46
2023-02-04T06:47:03.314Z,3.44
2023-02-04T06:49:33.645Z,3.38
2023-02-04T06:52:03.992Z,3.34
2023-02-04T06:54:34.304Z,3.34
2023-02-04T06:57:09.382Z,3.37
2023-02-04T06:59:43.259Z,3.36
2023-02-04T07:02:15.558Z,3.37
2023-02-04T07:04:47.742Z,3.36
2023-02-04T07:07:18.482Z,3.34
2023-02-04T07:09:48.927Z,3.36
2023-02-04T07:12:22.221Z,3.36
2023-02-04T07:14:52.652Z,3.43
2023-02-04T07:17:22.923Z,3.45
2023-02-04T07:19:53.252Z,3.46
2023-02-04T07:22:23.514Z,3.44
2023-02-04T07:24:53.878Z,3.44
2023-02-04T07:27:26.858Z,3.45
2023-02-04T07:29:57.218Z,3.54
2023-02-04T07:32:27.976Z,3.57
2023-02-04T07:34:58.351Z,3.64
2023-02-04T07:37:28.729Z,3.65
2023-02-04T07:39:59.062Z,3.67
2023-02-04T07:42:31.961Z,3.72
2023-02-04T07:45:11.612Z,3.75
2023-02-04T07:47:41.946Z,3.79
2023-02-04T07:50:13.175Z,3.83
2023-02-04T07:52:43.257Z,3.83
2023-02-04T07:55:13.624Z,3.88
2023-02-04T07:57:46.527Z,3.94
2023-02-04T08:00:18.871Z,3.94
2023-02-04T08:02:49.292Z,3.95
2023-02-04T08:05:19.901Z,4.03
2023-02-04T08:07:50.308Z,3.95
2023-02-04T08:10:21.602Z,3.92
2023-02-04T08:12:54.905Z,3.91
2023-02-04T08:15:25.451Z,3.96
2023-02-04T08:17:55.831Z,4.01
2023-02-04T08:20:26.556Z,4.01
2023-02-04T08:22:57.482Z,3.99
2023-02-04T08:25:29.465Z,3.94
2023-02-04T08:28:02.647Z,3.91
2023-02-04T08:30:33.332Z,4.02
2023-02-04T08:33:06.375Z,4.05
2023-02-04T08:35:36.702Z,4.03
2023-02-04T08:38:07.020Z,3.97
2023-02-04T08:40:37.577Z,3.97
2023-02-04T08:43:10.531Z,4.06
2023-02-04T08:45:41.248Z,4.20
2023-02-04T08:48:11.665Z,4.37
2023-02-04T08:50:41.995Z,4.46
2023-02-04T08:53:12.399Z,4.44
2023-02-04T08:55:42.769Z,4.38
2023-02-04T08:58:15.650Z,4.40
2023-02-04T09:00:46.201Z,4.42
2023-02-04T09:03:16.620Z,4.55
2023-02-04T09:05:47.715Z,4.60
2023-02-04T09:08:18.613Z,4.63
2023-02-04T09:10:49.097Z,4.68
2023-02-04T09:13:22.145Z,4.83
2023-02-04T09:15:54.221Z,4.91
2023-02-04T09:18:25.953Z,4.94
2023-02-04T09:20:56.591Z,4.86
2023-02-04T09:23:27.062Z,4.82
2023-02-04T09:25:57.402Z,4.89
2023-02-04T09:28:30.564Z,5.06
2023-02-04T09:31:02.565Z,5.61
2023-02-04T09:33:34.145Z,5.40
2023-02-04T09:36:04.596Z,5.18
2023-02-04T09:38:35.283Z,4.91
2023-02-04T09:41:10.497Z,4.83
2023-02-04T09:43:46.440Z,4.72
2023-02-04T09:46:24.439Z,4.77
2023-02-04T09:48:55.477Z,4.87
2023-02-04T09:51:29.805Z,4.97
2023-02-04T09:54:09.911Z,5.03
2023-02-04T09:56:40.377Z,5.16
2023-02-04T09:59:18.513Z,5.32
2023-02-04T10:01:50.823Z,5.54
2023-02-04T10:04:21.766Z,6.09
2023-02-04T10:06:52.462Z,6.64
2023-02-04T10:09:22.882Z,6.86
2023-02-04T10:11:53.538Z,6.88
2023-02-04T10:14:26.870Z,6.84
2023-02-04T10:17:00.813Z,7.06
2023-02-04T10:19:33.990Z,7.16
2023-02-04T10:22:06.379Z,7.01
2023-02-04T10:24:37.544Z,7.02
2023-02-04T10:27:11.920Z,7.37
2023-02-04T10:29:45.487Z,7.35
2023-02-04T10:32:34.990Z,7.29
2023-02-04T10:35:06.577Z,8.07
2023-02-04T10:37:37.074Z,9.72
2023-02-04T10:40:28.846Z,10.51
2023-02-04T10:42:59.898Z,10.16
2023-02-04T10:45:33.501Z,9.70
2023-02-04T10:48:03.887Z,10.22
2023-02-04T10:50:34.526Z,10.62
2023-02-04T10:53:17.614Z,10.18
2023-02-04T10:55:49.755Z,9.41
2023-02-04T10:58:25.430Z,8.80
2023-02-04T11:00:58.540Z,8.28
2023-02-04T11:03:31.150Z,7.85
2023-02-04T11:06:03.807Z,7.66
2023-02-04T11:08:38.230Z,7.43
2023-02-04T11:11:11.346Z,8.42
2023-02-04T11:13:47.271Z,9.21
2023-02-04T11:16:30.558Z,9.10
2023-02-04T11:19:03.683Z,9.11
2023-02-04T11:21:49.113Z,8.72
2023-02-04T11:24:29.328Z,8.67
2023-02-04T11:27:20.778Z,8.37
2023-02-04T11:29:51.404Z,8.61
2023-02-04T11:32:38.174Z,8.86
2023-02-04T11:35:27.672Z,9.62
2023-02-04T11:37:58.692Z,10.31
2023-02-04T11:40:32.056Z,10.05
2023-02-04T11:43:06.290Z,10.06
2023-02-04T11:45:39.140Z,9.61
2023-02-04T11:48:19.294Z,10.09
2023-02-04T11:50:58.918Z,12.04
2023-02-04T11:53:36.821Z,11.85
2023-02-04T11:56:07.932Z,11.80
2023-02-04T11:58:43.613Z,11.60
2023-02-04T12:01:21.478Z,12.13
2023-02-04T12:04:00.949Z,11.03
2023-02-04T12:06:34.290Z,10.02
2023-02-04T12:09:17.332Z,10.32
2023-02-04T12:11:56.095Z,13.29
2023-02-04T12:14:33.066Z,13.59
2023-02-04T12:17:03.873Z,14.83
2023-02-04T12:19:36.844Z,13.40
2023-02-04T12:22:07.224Z,13.61
2023-02-04T12:24:37.620Z,13.92
2023-02-04T12:27:08.050Z,14.18
2023-02-04T12:29:38.486Z,12.67
2023-02-04T12:32:08.962Z,11.30
2023-02-04T12:34:42.044Z,10.37
2023-02-04T12:37:12.489Z,9.62
2023-02-04T12:39:42.857Z,9.00
2023-02-04T12:42:13.214Z,8.54
2023-02-04T12:44:43.615Z,8.28
2023-02-04T12:47:14.030Z,8.01
2023-02-04T12:49:47.383Z,7.94
2023-02-04T12:52:17.813Z,7.79
2023-02-04T12:54:48.232Z,8.39
2023-02-04T12:57:20.049Z,12.76
2023-02-04T12:59:51.928Z,13.57
2023-02-04T13:02:22.364Z,12.49
2023-02-04T13:04:56.056Z,11.85
2023-02-04T13:07:26.835Z,10.66
2023-02-04T13:09:57.514Z,9.66
2023-02-04T13:12:27.965Z,9.02
2023-02-04T13:14:58.301Z,8.57
2023-02-04T13:17:28.936Z,8.35
2023-02-04T13:20:01.920Z,8.20
2023-02-04T13:22:32.477Z,9.22
2023-02-04T13:25:04.194Z,8.86
2023-02-04T13:27:34.639Z,8.70
2023-02-04T13:30:04.922Z,9.30
2023-02-04T13:32:35.429Z,8.87
2023-02-04T13:35:09.418Z,8.32
2023-02-04T13:37:40.465Z,8.16
2023-02-04T13:40:13.990Z,8.16
2023-02-04T13:42:44.309Z,8.24
2023-02-04T13:45:16.373Z,7.92
2023-02-04T13:47:48.096Z,8.09
2023-02-04T13:50:21.674Z,8.53
2023-02-04T13:52:52.045Z,8.88
2023-02-04T13:55:22.441Z,9.41
2023-02-04T13:57:56.890Z,9.49
2023-02-04T14:00:27.705Z,10.20
2023-02-04T14:02:58.438Z,11.51
2023-02-04T14:05:31.463Z,11.69
2023-02-04T14:08:06.464Z,11.40
2023-02-04T14:10:38.618Z,10.17
2023-02-04T14:13:09.184Z,9.21
2023-02-04T14:15:41.681Z,8.29
2023-02-04T14:18:12.713Z,8.00
2023-02-04T14:20:46.113Z,7.82
2023-02-04T14:23:16.749Z,7.57
2023-02-04T14:25:47.193Z,7.41
2023-02-04T14:28:17.655Z,7.63
2023-02-04T14:30:48.253Z,7.30
2023-02-04T14:33:18.758Z,7.04
2023-02-04T14:35:52.256Z,6.82
2023-02-04T14:38:22.545Z,6.71
2023-02-04T14:40:52.871Z,6.61
2023-02-04T14:43:23.189Z,6.50
2023-02-04T14:45:53.529Z,6.52
2023-02-04T14:48:23.903Z,6.48
2023-02-04T14:50:56.859Z,6.30
2023-02-04T14:53:27.333Z,6.26
2023-02-04T14:55:57.752Z,6.21
2023-02-04T14:58:28.195Z,6.24
2023-02-04T15:00:59.375Z,6.21
2023-02-04T15:03:29.576Z,6.33
2023-02-04T15:06:02.845Z,6.38
2023-02-04T15:08:33.550Z,6.31
2023-02-04T15:11:04.220Z,6.22
2023-02-04T15:13:34.560Z,6.11
2023-02-04T15:16:05.550Z,6.12
2023-02-04T15:18:36.205Z,6.01
2023-02-04T15:21:09.248Z,6.02
2023-02-04T15:23:39.749Z,5.89
2023-02-04T15:26:10.166Z,5.77
2023-02-04T15:28:40.646Z,5.64
2023-02-04T15:31:12.429Z,5.48
2023-02-04T15:33:43.525Z,5.33
2023-02-04T15:36:16.659Z,5.24
2023-02-04T15:38:48.046Z,5.18
2023-02-04T15:41:18.181Z,5.20
2023-02-04T15:43:49.013Z,5.13
2023-02-04T15:46:19.392Z,5.07
2023-02-04T15:48:49.978Z,5.03
2023-02-04T15:51:22.994Z,5.02
2023-02-04T15:53:53.322Z,4.95
2023-02-04T15:56:23.934Z,4.88
2023-02-04T15:58:54.913Z,4.86
2023-02-04T16:01:25.289Z,4.79
2023-02-04T16:03:56.683Z,4.71
2023-02-04T16:06:29.399Z,4.66
2023-02-04T16:08:59.780Z,4.63
2023-02-04T16:11:30.168Z,4.59
2023-02-04T16:14:00.630Z,4.57
2023-02-04T16:16:33.517Z,4.53
2023-02-04T16:19:04.497Z,4.49
2023-02-04T16:21:37.521Z,4.42
2023-02-04T16:24:09.237Z,4.41
2023-02-04T16:26:39.509Z,4.36
2023-02-04T16:29:09.956Z,4.38
2023-02-04T16:31:40.387Z,4.39
2023-02-04T16:34:10.784Z,4.42
2023-02-04T16:36:43.893Z,4.45
2023-02-04T16:39:14.312Z,4.47
2023-02-04T16:41:44.771Z,4.50
2023-02-04T16:44:15.264Z,4.45
2023-02-04T16:46:45.787Z,4.46
2023-02-04T16:49:16.347Z,4.46
2023-02-04T16:51:49.418Z,4.38
2023-02-04T16:54:19.766Z,4.47
2023-02-04T16:56:50.295Z,4.46
2023-02-04T16:59:20.662Z,4.48
2023-02-04T17:01:51.308Z,4.48
2023-02-04T17:04:21.973Z,4.45
2023-02-04T17:06:55.362Z,4.41
2023-02-04T17:09:25.674Z,4.35
2023-02-04T17:11:56.150Z,4.33
2023-02-04T17:14:26.876Z,4.30
2023-02-04T17:16:57.509Z,4.27
2023-02-04T17:19:27.899Z,4.19
2023-02-04T17:22:01.016Z,4.19
2023-02-04T17:24:36.447Z,4.22
2023-02-04T17:27:12.480Z,4.22
2023-02-04T17:29:42.894Z,4.25
2023-02-04T17:32:13.243Z,4.19
2023-02-04T17:34:45.232Z,4.24
2023-02-04T17:37:20.476Z,4.21
2023-02-04T17:39:50.854Z,4.15
2023-02-04T17:42:21.755Z,4.04
2023-02-04T17:44:52.821Z,4.05
2023-02-04T17:47:23.453Z,4.05
2023-02-04T17:49:53.909Z,4.07
2023-02-04T17:52:27.048Z,4.04
2023-02-04T17:54:57.357Z,4.01
2023-02-04T17:57:27.862Z,3.98
2023-02-04T17:59:58.292Z,3.95
2023-02-04T18:02:32.178Z,3.90
2023-02-04T18:05:11.557Z,3.86
2023-02-04T18:07:50.858Z,3.88
2023-02-04T18:10:25.671Z,3.86
2023-02-04T18:12:56.664Z,3.86
2023-02-04T18:15:32.274Z,3.87
2023-02-04T18:18:16.983Z,3.82
2023-02-04T18:20:47.349Z,3.71
2023-02-04T18:23:22.318Z,3.73
2023-02-04T18:25:52.639Z,3.74
2023-02-04T18:28:24.748Z,3.73
2023-02-04T18:30:57.354Z,3.69
2023-02-04T18:33:30.020Z,3.66
2023-02-04T18:36:04.074Z,3.63
2023-02-04T18:38:43.411Z,3.48
2023-02-04T18:41:36.860Z,3.40
2023-02-04T18:44:32.616Z,3.37
2023-02-04T18:47:05.671Z,3.36
2023-02-04T18:49:39.791Z,3.36
2023-02-04T18:52:21.269Z,3.35
2023-02-04T18:54:58.311Z,3.33
2023-02-04T18:57:38.043Z,3.28
2023-02-04T19:00:35.024Z,3.23
2023-02-04T19:03:23.164Z,3.22
2023-02-04T19:05:54.472Z,3.16
2023-02-04T19:08:27.263Z,3.11
2023-02-04T19:11:02.156Z,3.09
2023-02-04T19:13:42.450Z,3.11
2023-02-04T19:16:36.500Z,3.11
2023-02-04T19:19:31.044Z,3.11
2023-02-04T19:22:01.460Z,3.08
2023-02-04T19:24:32.670Z,3.09
2023-02-04T19:27:30.859Z,3.09
2023-02-04T19:30:04.149Z,3.09
2023-02-04T19:32:53.521Z,3.06
2023-02-04T19:35:26.303Z,3.06
2023-02-04T19:38:00.621Z,3.04
2023-02-04T19:40:35.489Z,3.02
2023-02-04T19:43:24.481Z,3.03
2023-02-04T19:45:55.001Z,3.02
2023-02-04T19:48:33.510Z,3.03
2023-02-04T19:51:21.379Z,3.04
2023-02-04T19:53:54.118Z,3.05
2023-02-04T19:56:35.782Z,3.03
2023-02-04T19:59:31.580Z,3.06
2023-02-04T20:02:23.168Z,3.05
2023-02-04T20:04:57.268Z,3.09
2023-02-04T20:07:29.955Z,3.09
2023-02-04T20:10:05.657Z,3.16
2023-02-04T20:12:36.834Z,3.15
2023-02-04T20:15:19.757Z,3.14
2023-02-04T20:17:51.526Z,3.09
2023-02-04T20:20:31.236Z,3.13
2023-02-04T20:23:03.630Z,3.09
2023-02-04T20:25:45.292Z,3.12
2023-02-04T20:28:43.519Z,3.13
2023-02-04T20:31:28.883Z,3.17
2023-02-04T20:34:01.562Z,3.17
2023-02-04T20:36:47.415Z,3.21
2023-02-04T20:39:43.318Z,3.16
2023-02-04T20:42:36.194Z,3.15
2023-02-04T20:45:31.013Z,3.15
2023-02-04T20:48:30.311Z,3.16
2023-02-04T20:51:04.028Z,3.19
2023-02-04T20:53:41.769Z,3.22
2023-02-04T20:56:29.062Z,3.24
2023-02-04T20:59:11.071Z,3.16
2023-02-04T21:01:44.180Z,3.18
2023-02-04T21:04:24.444Z,3.16
2023-02-04T21:06:58.252Z,3.16
2023-02-04T21:09:32.802Z,3.17
2023-02-04T21:12:04.929Z,3.14
2023-02-04T21:14:35.737Z,3.17
2023-02-04T21:17:06.155Z,3.16
2023-02-04T21:19:39.287Z,3.10
2023-02-04T21:22:09.649Z,3.11
2023-02-04T21:24:39.967Z,3.08
2023-02-04T21:27:10.440Z,3.00
2023-02-04T21:29:40.730Z,3.01
2023-02-04T21:32:11.338Z,2.99
2023-02-04T21:34:44.352Z,3.00
2023-02-04T21:37:14.701Z,3.02
2023-02-04T21:39:45.058Z,3.01
2023-02-04T21:42:15.349Z,3.03
2023-02-04T21:44:45.784Z,3.00
2023-02-04T21:47:17.815Z,2.95
2023-02-04T21:49:50.992Z,2.98
2023-02-04T21:52:21.349Z,2.99
2023-02-04T21:54:51.693Z,2.93
2023-02-04T21:57:22.032Z,2.97
2023-02-04T21:59:54.580Z,2.92
2023-02-04T22:02:25.709Z,2.89
2023-02-04T22:04:58.707Z,2.94
2023-02-04T22:07:29.162Z,2.99
2023-02-04T22:09:59.508Z,3.00
2023-02-04T22:12:32.274Z,3.01
2023-02-04T22:15:04.275Z,3.01
2023-02-04T22:17:34.947Z,3.01
2023-02-04T22:20:08.985Z,2.98
2023-02-04T22:22:39.373Z,2.99
2023-02-04T22:25:10.649Z,2.99
2023-02-04T22:27:40.784Z,2.98
2023-02-04T22:30:14.229Z,2.98
2023-02-04T22:32:44.783Z,2.98
2023-02-04T22:35:18.462Z,2.99
2023-02-04T22:37:48.846Z,2.96
2023-02-04T22:40:19.212Z,2.94
2023-02-04T22:42:49.609Z,2.96
2023-02-04T22:45:21.452Z,2.94
2023-02-04T22:47:51.771Z,2.93
2023-02-04T22:50:24.799Z,2.92
2023-02-04T22:52:55.250Z,2.92
2023-02-04T22:55:25.668Z,2.94
2023-02-04T22:57:55.995Z,2.88
2023-02-04T23:00:26.523Z,2.89
2023-02-04T23:02:57.018Z,2.86
2023-02-04T23:05:30.059Z,2.86
2023-02-04T23:08:00.395Z,2.85
2023-02-04T23:10:30.701Z,2.86
2023-02-04T23:13:00.999Z,2.88
2023-02-04T23:15:31.595Z,2.86
2023-02-04T23:18:02.213Z,2.85
2023-02-04T23:20:36.315Z,2.83
2023-02-04T23:23:07.042Z,2.83
2023-02-04T23:25:37.906Z,2.82
2023-02-04T23:28:08.729Z,2.77
2023-02-04T23:30:39.350Z,2.77
2023-02-04T23:33:10.991Z,2.78
2023-02-04T23:35:43.983Z,2.73
2023-02-04T23:38:14.303Z,2.74
2023-02-04T23:40:44.790Z,2.75
2023-02-04T23:43:15.173Z,2.69
2023-02-04T23:45:45.976Z,2.62
2023-02-04T23:48:16.421Z,2.59
2023-02-04T23:50:50.353Z,2.53
2023-02-04T23:53:21.432Z,2.45
2023-02-04T23:55:51.827Z,2.44
2023-02-04T23:58:22.585Z,2.41
